Bookmark and Share
Track history (hours):
 

Viking Queen

More information available from US FCC via Universal Licensing System and Coast Guard Vessel Documentation Center.

Last reported at 2014-Apr-24 19:27 UTC. Time now 2014-Apr-24 19:45 UTC.
Position N 30°03' W 090°39'.

Length 55 m; draft 3.2 m.

Type: Towing. MMSI: 366985050.

NotesDate/timePositionNaut miles runAvg speedWind from/ knotsBaromVisibWave heightAir tempDewpointWater temp
2014-Apr-24 19:27N 30°03' W 090°39'4 4.4
2014-Apr-24 18:33N 30°03' W 090°35'20 2.7
2014-Apr-24 11:18N 29°57' W 090°13'1 0.8
2014-Apr-24 09:33N 29°56' W 090°13'0 0.0
2014-Apr-24 08:05N 29°56' W 090°13'0 0.0
2014-Apr-24 07:29N 29°56' W 090°13'0 0.0
2014-Apr-24 06:19N 29°56' W 090°13'0 0.0
2014-Apr-24 05:30N 29°56' W 090°13'0 0.0
2014-Apr-24 04:32N 29°56' W 090°13'3 1.0
2014-Apr-24 01:33N 29°58' W 090°15'4 3.5
2014-Apr-24 00:32N 29°57' W 090°19'1 0.8
2014-Apr-23 23:32N 29°56' W 090°20'6 6.2
2014-Apr-23 22:33N 29°60' W 090°25'8 8.0
2014-Apr-23 21:33N 30°03' W 090°34'3 2.6
2014-Apr-23 20:33N 30°02' W 090°36'0 0.0
2014-Apr-23 19:34N 30°02' W 090°36'0 0.0
2014-Apr-23 18:33N 30°02' W 090°36'0 0.0
2014-Apr-23 17:33N 30°02' W 090°36'0 0.0
2014-Apr-23 16:33N 30°02' W 090°36'0 0.0
2014-Apr-23 15:32N 30°02' W 090°36'0 0.0
2014-Apr-23 14:33N 30°02' W 090°36'0 0.0
2014-Apr-23 13:33N 30°02' W 090°36'0 0.0
2014-Apr-23 12:33N 30°02' W 090°36'0 0.0
2014-Apr-23 11:30N 30°02' W 090°36'0 0.0
2014-Apr-23 10:33N 30°02' W 090°36'0 0.0
2014-Apr-23 09:33N 30°02' W 090°36'0 0.0
2014-Apr-23 08:33N 30°02' W 090°36'0 0.0
2014-Apr-23 07:33N 30°02' W 090°36'0 0.0
2014-Apr-23 06:33N 30°02' W 090°36'0 0.0
2014-Apr-23 05:33N 30°02' W 090°36'0 0.0
2014-Apr-23 04:33N 30°02' W 090°36'0 0.0
2014-Apr-23 03:33N 30°02' W 090°36'0 0.0
2014-Apr-23 02:33N 30°02' W 090°36'0 0.0
2014-Apr-23 01:33N 30°02' W 090°36'0 0.0
2014-Apr-23 00:33N 30°02' W 090°36'0 0.0
2014-Apr-22 23:34N 30°02' W 090°36'0 0.0
2014-Apr-22 22:33N 30°02' W 090°36'9 4.0
2014-Apr-22 20:21N 30°01' W 090°46'  

Dump ship's entire track history

sailing weather and tide predictions

Viking Queen — WDB9919 — position and weather